TOURFACTS.DK  
Stats and Facts from Tour de France.

Tour de France 2019 starts in 348 days
  Riders   Stages   Teams   Summits   Yearly  


 
Search by year

After 2018 - Stage 14:
 15000 starters.
  5163 different riders.
  639 teams.
  2246 stages.
  456 restdays.
  441957.60 km.
  5678 abandonnees.


Top 3
GC
Christopher Froome86:20:55
Rigoberto Urán86:21:49
Romain Bardet86:23:15
Climb
Warren Barguil169 pt.
Primoz Roglic80 pt.
Thomas De Gendt64 pt.
Sprint
Michael Matthews359 pt.
André Greipel234 pt.
Edvald Boasson Hagen220 pt.
Youth
Simon Yates86:27:09
Louis Meintjes86:29:15
Emanuel Buchmann86:54:16
Facts from Tour de France 1935
  |   Stages.  |   Stage winners.  |   Days in yellow  |   Average speed.  |   Route.  |   Teams.  |   All riders.  |   Rookies.  |  

  |   Withdrawls.  |   GC.  |   Polka  |   Green  |   White  |   Summits. (In tour)  |   Miscellaneous.  |  

Stage 1 on July 4th. 1935
  
Pick a stage:  1 2 3 4 5a 5b 6 7 8 9 10 11 12 13a 13b 14a 14b 15 16 17 18a 18b 19a 19b 20a 20b 21
From: Paris    To: LilleDist:262.00 km.

Average speed for all riders in stage:  34,421 km./hr.
    Place:Name:Team:Time:Km/h:
BELRomain MaesBELBelgium07:23:58  +  00:00:00=35,408 
BELEdgard De CaluweBELBelgium07:24:51  +  00:00:53=35,338 
FRACharles PelissierFRAFrance B07:24:51  +  00:00:53=35,338 
4 BELJean AertsBELBelgium07:24:51  +  00:00:53=35,338 
5 FRAAntonin MagneFRAFrance07:24:51  +  00:00:53=35,338 
6 FRAAndré LeducqFRAFrance07:26:18  +  00:02:20=35,223 
7 FRAJules MervielFRAFrance07:27:18  +  00:03:20=35,144 
8 FRARené BernardTouristes Routiers07:27:18  +  00:03:20=35,144 
9 FRAPierre-Marie CloarecTouristes Routiers07:27:18  +  00:03:20=35,144 
10 FRAGeorges SpeicherFRAFrance07:27:18  +  00:03:20=35,144 
11 GERFerdinand IckesDEUGermany B07:27:18  +  00:03:20=35,144 
12 GERKurt StöpelDEUGermany07:27:18  +  00:03:20=35,144 
13 BELSylvère MaesBELBelgium B07:27:18  +  00:03:20=35,144 
14 BELLouis HardiquestBELBelgium07:27:18  +  00:03:20=35,144 
15 FRARené Le GrevesFRAFrance07:27:18  +  00:03:20=35,144 
16 FRAMaurice ArchambaudFRAFrance07:29:23  +  00:05:25=34,981 
17 GEROskar ThierbachDEUGermany07:29:23  +  00:05:25=34,981 
18 ITAEugenio GestriITACadetti Italiens07:29:23  +  00:05:25=34,981 
19 BELFélicien VervaeckeBELBelgium07:29:23  +  00:05:25=34,981 
20 FRARoger LapebieFRAFrance B07:29:23  +  00:05:25=34,981 
21 BELHenri GarnierBELBelgium07:29:45  +  00:05:47=34,953 
22 BELJules LowieBELBelgium B07:30:05  +  00:06:07=34,927 
23 ITADante GianelloTouristes Routiers07:30:27  +  00:06:29=34,898 
24 FRARené DebenneFRAFrance07:30:27  +  00:06:29=34,898 
25 ITAVasco BergamaschiITAItaly07:30:27  +  00:06:29=34,898 
26 GERGeorge HaendelDEUGermany B07:30:43  +  00:06:45=34,878 
27 GERBruno RothDEUGermany B07:30:43  +  00:06:45=34,878 
28 GERGeorg UmbenhauerDEUGermany07:31:48  +  00:07:50=34,794 
29 FRARobert RenonceTouristes Routiers07:31:48  +  00:07:50=34,794 
30 FRAGeorges HubatzTouristes Routiers07:31:48  +  00:07:50=34,794 
31 FRAClément BistagneTouristes Routiers07:31:50  +  00:07:52=34,792 
32 ITAGiuseppe MartanoITAItaly07:31:50  +  00:07:52=34,792 
33 ESPVicente BacheroESPSpain B07:32:14  +  00:08:16=34,761 
34 BELAntoine DignefBELBelgium B07:32:40  +  00:08:42=34,728 
35 BELJoseph MoerenhoutBELBelgium07:32:40  +  00:08:42=34,728 
36 FRAPierre CoganTouristes Routiers07:32:40  +  00:08:42=34,728 
37 BELFrançois NeuvilleBELBelgium B07:33:03  +  00:09:05=34,698 
38 ITAMario CiprianiITAItaly07:33:03  +  00:09:05=34,698 
39 ITAAmbrogio MorelliITACadetti Italiens07:33:11  +  00:09:13=34,688 
40 ITARené-Paul CoralliniTouristes Routiers07:33:11  +  00:09:13=34,688 
41 ITAPietro RimoldiITACadetti Italiens07:34:20  +  00:10:22=34,600 
42 ESPManuel GarciaTouristes Routiers07:34:20  +  00:10:22=34,600 
43 FRASezny Le RouxTouristes Routiers07:34:20  +  00:10:22=34,600 
44 FRAJoseph MauclairTouristes Routiers07:34:20  +  00:10:22=34,600 
45 GEREmil KijewskiDEUGermany07:34:20  +  00:10:22=34,600 
46 ITARafaële Di PacoITAItaly07:34:20  +  00:10:22=34,600 
47 FRABenoit FaureTouristes Routiers07:34:20  +  00:10:22=34,600 
48 ITALuigi GiacobbeITAItaly07:34:20  +  00:10:22=34,600 
49 ESPSalvador CardonaESPSpain07:35:19  +  00:11:21=34,525 
50 FRACharles BertyTouristes Routiers07:35:41  +  00:11:43=34,498 
51 SUILéo AmbergCHESwitzerland07:35:41  +  00:11:43=34,498 
52 FRAJean FontenayFRAFrance B07:35:41  +  00:11:43=34,498 
53 LUXJosy KrausTouristes Routiers07:36:14  +  00:12:16=34,456 
54 GERWilly KutschbachDEUGermany07:36:30  +  00:12:32=34,436 
55 FRARoland FleuretTouristes Routiers07:36:56  +  00:12:58=34,403 
56 ESPMariano CañardoESPSpain07:36:56  +  00:12:58=34,403 
57 FRALouis ThiétardTouristes Routiers07:36:56  +  00:12:58=34,403 
58 FRAHonore GranierTouristes Routiers07:36:56  +  00:12:58=34,403 
59 FRAGustave DanneelsBELBelgium07:36:56  +  00:12:58=34,403 
60 FRAJulien MoineauFRAFrance B07:37:30  +  00:13:32=34,361 
61 FRAMaurice PomarèdeTouristes Routiers07:38:14  +  00:14:16=34,306 
62 GERKarl HeideDEUGermany07:38:28  +  00:14:30=34,288 
63 GEROtto WeckerlingDEUGermany07:38:28  +  00:14:30=34,288 
64 FRAGabriel RuozziTouristes Routiers07:38:28  +  00:14:30=34,288 
65 ITARemo BertoniITAItaly07:38:40  +  00:14:42=34,273 
66 ITAAdriano VignoliITAItaly07:38:40  +  00:14:42=34,273 
67 GERAnton HodeyDEUGermany07:39:22  +  00:15:24=34,221 
68 FRAPierre JanvierTouristes Routiers07:39:55  +  00:15:57=34,180 
69 ITAOreste BernardoniTouristes Routiers07:40:42  +  00:16:44=34,122 
70 ESPThéodore LadronTouristes Routiers07:41:28  +  00:17:30=34,065 
71 SUIKurt StettlerCHESwitzerland07:41:56  +  00:17:58=34,031 
72 GERGeorg StachDEUGermany B07:41:56  +  00:17:58=34,031 
73 FRAGeorges LachatTouristes Routiers07:41:56  +  00:17:58=34,031 
74 FRARené ViettoFRAFrance07:42:37  +  00:18:39=33,981 
75 ITAFrancesco CamussoITAItaly07:42:37  +  00:18:39=33,981 
76 FRAPaul ChocqueTouristes Routiers07:45:46  +  00:21:48=33,751 
77 ESPAntonio PriorESPSpain07:46:52  +  00:22:54=33,671 
78 ESPIsidro FiguerasESPSpain07:46:52  +  00:22:54=33,671 
79 FRAFernand FayolleTouristes Routiers07:47:57  +  00:23:59=33,593 
80 FRAAimable DenhezTouristes Routiers07:50:41  +  00:26:43=33,398 
81 ESPEmiliano AlvarezESPSpain07:52:27  +  00:28:29=33,273 
82 ITAOrlando TeaniITACadetti Italiens07:52:27  +  00:28:29=33,273 
83 ITAAldo BertoccoTouristes Routiers07:54:08  +  00:30:10=33,155 
84 FRALouis HalbourgTouristes Routiers07:55:02  +  00:31:04=33,092 
85 SUIFritz HartmannCHESwitzerland07:57:24  +  00:33:26=32,928 
86 ESPFederico EzquerraESPSpain07:57:24  +  00:33:26=32,928 
87 ESPVicente TruebaESPSpain07:57:24  +  00:33:26=32,928 
88 ESPDemetrio VicenteESPSpain B07:57:45  +  00:33:47=32,904 
89 ESPFrancisco CepedaESPSpain B07:59:55  +  00:35:57=32,756 
90 FRAJean PhilipTouristes Routiers08:08:59  +  00:45:01=32,148 

Withdrawls: 3
 
Rider
Team
Reason
22  ESPElie CyprienESPSpainDid not finish
73  SUIAlfred BulaCHESwitzerlandDid not finish
106  FRAArthur DebruyckereTouristes RoutiersDid not finish

Todays birthdays.

1877  Antoine Perrichon
1878  Auguste Berthault
1911  Théo Herckenrath
1924  Carlo Lafranchi
1931  Armand Di Caro
1937  Jean-Claude Lebaube
1951  Giovanni Battaglin
1961  Pascal Jules
1962  Jean-Claude Leclercq
1976  Janek Tombak
1978  Francisco Pérez
1983  Dries Devenyns




Visits: